createdAt,value
2023-01-17T00:00:54.632Z,-11.85
2023-01-17T00:03:24.265Z,-11.83
2023-01-17T00:06:11.650Z,-11.88
2023-01-17T00:08:58.880Z,-11.84
2023-01-17T00:11:27.730Z,-11.92
2023-01-17T00:13:56.561Z,-11.91
2023-01-17T00:16:27.161Z,-11.95
2023-01-17T00:19:15.132Z,-11.97
2023-01-17T00:22:02.481Z,-12.00
2023-01-17T00:24:50.789Z,-12.02
2023-01-17T00:27:19.439Z,-12.03
2023-01-17T00:29:48.993Z,-11.99
2023-01-17T00:32:17.708Z,-12.01
2023-01-17T00:34:46.358Z,-12.03
2023-01-17T00:37:15.116Z,-11.99
2023-01-17T00:39:43.739Z,-12.00
2023-01-17T00:42:12.273Z,-12.00
2023-01-17T00:44:59.759Z,-12.02
2023-01-17T00:47:47.678Z,-12.05
2023-01-17T00:50:35.257Z,-12.03
2023-01-17T00:53:25.640Z,-12.07
2023-01-17T00:56:12.956Z,-12.10
2023-01-17T00:59:00.356Z,-12.10
2023-01-17T01:01:48.756Z,-12.13
2023-01-17T01:04:36.395Z,-12.18
2023-01-17T01:07:23.575Z,-12.10
2023-01-17T01:10:11.387Z,-12.12
2023-01-17T01:12:59.746Z,-12.14
2023-01-17T01:15:47.245Z,-12.15
2023-01-17T01:18:35.161Z,-12.17
2023-01-17T01:21:22.927Z,-12.15
2023-01-17T01:24:10.190Z,-12.18
2023-01-17T01:26:57.467Z,-12.14
2023-01-17T01:29:44.833Z,-12.16
2023-01-17T01:32:32.153Z,-12.13
2023-01-17T01:35:00.951Z,-12.11
2023-01-17T01:37:32.921Z,-12.08
2023-01-17T01:40:01.745Z,-12.05
2023-01-17T01:42:31.891Z,-11.99
2023-01-17T01:45:00.672Z,-11.96
2023-01-17T01:47:34.244Z,-11.93
2023-01-17T01:50:07.894Z,-11.93
2023-01-17T01:52:45.627Z,-11.92
2023-01-17T01:55:23.743Z,-11.92
2023-01-17T01:57:57.317Z,-11.86
2023-01-17T02:00:31.714Z,-11.89
2023-01-17T02:03:06.446Z,-11.90
2023-01-17T02:05:36.430Z,-11.87
2023-01-17T02:08:09.405Z,-11.81
2023-01-17T02:10:41.250Z,-11.75
2023-01-17T02:13:11.511Z,-11.70
2023-01-17T02:16:04.471Z,-11.64
2023-01-17T02:19:11.483Z,-11.58
2023-01-17T02:21:51.177Z,-11.55
2023-01-17T02:24:38.029Z,-11.49
2023-01-17T02:27:23.613Z,-11.44
2023-01-17T02:29:58.922Z,-11.39
2023-01-17T02:32:54.309Z,-11.29
2023-01-17T02:35:50.826Z,-11.27
2023-01-17T02:38:32.453Z,-11.19
2023-01-17T02:41:08.294Z,-11.22
2023-01-17T02:43:38.417Z,-11.18
2023-01-17T02:46:09.564Z,-11.20
2023-01-17T02:48:41.369Z,-11.18
2023-01-17T02:51:16.436Z,-11.15
2023-01-17T02:54:20.408Z,-11.12
2023-01-17T02:57:03.021Z,-11.09
2023-01-17T03:00:19.502Z,-11.09
2023-01-17T03:03:32.342Z,-11.01
2023-01-17T03:06:12.237Z,-11.00
2023-01-17T03:08:47.193Z,-11.16
2023-01-17T03:11:17.171Z,-11.00
2023-01-17T03:13:46.040Z,-10.96
2023-01-17T03:16:23.245Z,-10.95
2023-01-17T03:18:52.268Z,-10.89
2023-01-17T03:21:22.627Z,-10.88
2023-01-17T03:23:51.986Z,-10.91
2023-01-17T03:26:21.041Z,-10.85
2023-01-17T03:28:49.857Z,-10.89
2023-01-17T03:31:20.712Z,-10.86
2023-01-17T03:33:49.891Z,-10.80
2023-01-17T03:36:19.250Z,-10.79
2023-01-17T03:38:49.478Z,-10.80
2023-01-17T03:41:18.366Z,-10.80
2023-01-17T03:43:47.253Z,-10.78
2023-01-17T03:46:28.043Z,-10.89
2023-01-17T03:48:56.826Z,-10.94
2023-01-17T03:51:25.762Z,-10.96
2023-01-17T03:53:54.752Z,-10.94
2023-01-17T03:56:23.904Z,-10.93
2023-01-17T03:58:54.285Z,-10.87
2023-01-17T04:01:23.818Z,-10.86
2023-01-17T04:03:53.533Z,-10.80
2023-01-17T04:06:22.395Z,-10.78
2023-01-17T04:08:51.398Z,-10.76
2023-01-17T04:11:21.194Z,-10.69
2023-01-17T04:13:50.057Z,-10.74
2023-01-17T04:16:20.240Z,-10.79
2023-01-17T04:18:49.027Z,-10.75
2023-01-17T04:21:17.890Z,-10.66
2023-01-17T04:23:46.739Z,-10.49
2023-01-17T04:26:15.669Z,-10.30
2023-01-17T04:28:45.384Z,-10.27
2023-01-17T04:31:18.187Z,-10.02
2023-01-17T04:33:47.030Z,-10.11
2023-01-17T04:36:15.805Z,-10.20
2023-01-17T04:38:44.749Z,-10.25
2023-01-17T04:41:13.637Z,-10.30
2023-01-17T04:43:42.443Z,-10.31
2023-01-17T04:46:11.678Z,-10.33
2023-01-17T04:48:40.541Z,-10.47
2023-01-17T04:51:09.461Z,-10.50
2023-01-17T04:53:38.305Z,-10.55
2023-01-17T04:56:07.571Z,-10.59
2023-01-17T04:58:36.518Z,-10.48
2023-01-17T05:01:08.485Z,-10.40
2023-01-17T05:03:38.008Z,-10.25
2023-01-17T05:06:07.085Z,-10.14
2023-01-17T05:08:36.068Z,-10.06
2023-01-17T05:11:05.191Z,-9.96
2023-01-17T05:13:33.994Z,-10.01
2023-01-17T05:16:03.123Z,-10.02
2023-01-17T05:18:32.087Z,-10.06
2023-01-17T05:21:05.320Z,-10.20
2023-01-17T05:23:34.505Z,-10.27
2023-01-17T05:26:03.304Z,-10.27
2023-01-17T05:28:32.424Z,-10.22
2023-01-17T05:31:01.372Z,-10.21
2023-01-17T05:33:30.281Z,-10.19
2023-01-17T05:36:00.217Z,-10.17
2023-01-17T05:38:29.147Z,-10.11
2023-01-17T05:41:01.331Z,-10.05
2023-01-17T05:43:31.811Z,-10.04
2023-01-17T05:46:00.781Z,-10.09
2023-01-17T05:48:29.632Z,-10.15
2023-01-17T05:50:59.165Z,-10.13
2023-01-17T05:53:28.540Z,-10.08
2023-01-17T05:55:57.513Z,-10.10
2023-01-17T05:58:27.541Z,-10.12
2023-01-17T06:00:57.675Z,-10.11
2023-01-17T06:03:27.368Z,-10.15
2023-01-17T06:05:57.204Z,-10.16
2023-01-17T06:08:26.063Z,-10.12
2023-01-17T06:10:54.881Z,-10.19
2023-01-17T06:13:23.691Z,-10.20
2023-01-17T06:15:52.560Z,-10.12
2023-01-17T06:18:21.475Z,-10.08
2023-01-17T06:20:55.364Z,-10.08
2023-01-17T06:23:25.858Z,-9.75
2023-01-17T06:28:25.022Z,-9.62
2023-01-17T06:30:54.274Z,-9.65
2023-01-17T06:33:23.349Z,-9.66
2023-01-17T06:35:53.894Z,-9.69
2023-01-17T06:38:22.783Z,-9.73
2023-01-17T06:40:52.604Z,-9.76
2023-01-17T06:43:22.185Z,-9.75
2023-01-17T06:45:51.458Z,-9.78
2023-01-17T06:48:20.370Z,-9.74
2023-01-17T06:50:50.355Z,-9.83
2023-01-17T06:53:19.407Z,-9.83
2023-01-17T06:55:49.280Z,-9.90
2023-01-17T06:58:18.116Z,-10.00
2023-01-17T07:00:48.445Z,-10.07
2023-01-17T07:03:23.956Z,-10.26
2023-01-17T07:05:53.775Z,-10.24
2023-01-17T07:08:22.765Z,-10.22
2023-01-17T07:10:51.635Z,-10.29
2023-01-17T07:13:21.998Z,-10.41
2023-01-17T07:15:51.669Z,-10.46
2023-01-17T07:18:24.105Z,-10.47
2023-01-17T07:20:54.217Z,-10.51
2023-01-17T07:23:24.747Z,-10.48
2023-01-17T07:25:57.842Z,-10.46
2023-01-17T07:28:29.004Z,-10.45
2023-01-17T07:30:58.419Z,-10.46
2023-01-17T07:33:27.688Z,-10.57
2023-01-17T07:35:57.288Z,-10.61
2023-01-17T07:38:26.089Z,-10.67
2023-01-17T07:41:00.270Z,-10.69
2023-01-17T07:43:29.271Z,-10.61
2023-01-17T07:46:01.338Z,-10.59
2023-01-17T07:48:31.696Z,-10.57
2023-01-17T07:51:01.356Z,-10.62
2023-01-17T07:53:31.823Z,-10.62
2023-01-17T07:56:06.331Z,-10.67
2023-01-17T07:58:36.180Z,-10.71
2023-01-17T08:01:10.451Z,-10.76
2023-01-17T08:03:41.958Z,-10.76
2023-01-17T08:06:19.731Z,-10.85
2023-01-17T08:08:49.261Z,-10.86
2023-01-17T08:11:18.179Z,-10.90
2023-01-17T08:13:47.502Z,-10.94
2023-01-17T08:16:16.813Z,-10.94
2023-01-17T08:18:45.958Z,-10.94
2023-01-17T08:21:17.323Z,-10.97
2023-01-17T08:23:51.554Z,-10.92
2023-01-17T08:26:22.882Z,-10.96
2023-01-17T08:29:01.226Z,-10.94
2023-01-17T08:31:33.209Z,-10.97
2023-01-17T08:34:02.384Z,-11.01
2023-01-17T08:36:31.846Z,-11.13
2023-01-17T08:39:01.761Z,-10.99
2023-01-17T08:41:30.689Z,-11.01
2023-01-17T08:43:59.955Z,-11.07
2023-01-17T08:46:30.011Z,-11.13
2023-01-17T08:49:00.668Z,-11.17
2023-01-17T08:51:33.044Z,-11.28
2023-01-17T08:54:03.156Z,-11.32
2023-01-17T08:56:32.332Z,-11.44
2023-01-17T08:59:01.390Z,-11.45
2023-01-17T09:01:31.260Z,-11.43
2023-01-17T09:04:00.640Z,-11.47
2023-01-17T09:06:29.555Z,-11.48
2023-01-17T09:09:00.185Z,-11.58
2023-01-17T09:11:30.962Z,-11.65
2023-01-17T09:14:01.235Z,-11.69
2023-01-17T09:16:31.085Z,-11.68
2023-01-17T09:19:00.669Z,-11.71
2023-01-17T09:21:30.770Z,-11.68
2023-01-17T09:23:59.898Z,-11.68
2023-01-17T09:26:33.393Z,-11.70
2023-01-17T09:29:02.266Z,-11.78
2023-01-17T09:31:31.190Z,-11.77
2023-01-17T09:34:00.304Z,-11.84
2023-01-17T09:36:30.787Z,-11.81
2023-01-17T09:39:00.356Z,-11.80
2023-01-17T09:41:44.559Z,-11.79
2023-01-17T09:44:31.747Z,-11.82
2023-01-17T09:47:27.880Z,-11.85
2023-01-17T09:50:22.160Z,-11.85
2023-01-17T09:52:52.799Z,-11.83
2023-01-17T09:55:22.031Z,-11.85
2023-01-17T09:58:13.332Z,-11.82
2023-01-17T10:00:56.255Z,-11.85
2023-01-17T10:03:49.691Z,-11.85
2023-01-17T10:07:05.456Z,-11.89
2023-01-17T10:10:04.722Z,-11.90
2023-01-17T10:12:52.235Z,-11.86
2023-01-17T10:15:36.274Z,-11.88
2023-01-17T10:18:29.525Z,-11.88
2023-01-17T10:21:24.927Z,-11.93
2023-01-17T10:24:05.359Z,-11.88
2023-01-17T10:26:36.836Z,-11.90
2023-01-17T10:29:16.225Z,-12.02
2023-01-17T10:31:59.243Z,-11.90
2023-01-17T10:34:43.411Z,-11.86
2023-01-17T10:37:25.462Z,-11.83
2023-01-17T10:39:58.978Z,-11.86
2023-01-17T10:42:44.060Z,-11.90
2023-01-17T10:45:29.691Z,-11.89
2023-01-17T10:48:01.676Z,-11.86
2023-01-17T10:50:37.822Z,-11.91
2023-01-17T10:53:15.053Z,-11.90
2023-01-17T10:55:56.667Z,-11.93
2023-01-17T10:58:26.521Z,-11.89
2023-01-17T11:01:01.818Z,-11.90
2023-01-17T11:03:31.748Z,-11.90
2023-01-17T11:06:23.406Z,-11.84
2023-01-17T11:08:54.027Z,-11.85
2023-01-17T11:11:31.644Z,-11.84
2023-01-17T11:14:18.159Z,-11.81
2023-01-17T11:17:01.222Z,-11.80
2023-01-17T11:19:37.035Z,-11.94
2023-01-17T11:22:08.117Z,-11.86
2023-01-17T11:24:47.980Z,-11.85
2023-01-17T11:27:29.184Z,-11.84
2023-01-17T11:30:07.825Z,-11.88
2023-01-17T11:32:36.928Z,-11.84
2023-01-17T11:35:16.271Z,-11.81
2023-01-17T11:38:27.640Z,-11.81
2023-01-17T11:41:17.254Z,-11.83
2023-01-17T11:44:29.227Z,-11.80
2023-01-17T11:47:13.692Z,-11.80
2023-01-17T11:49:45.840Z,-11.81
2023-01-17T11:52:33.765Z,-11.87
2023-01-17T11:55:02.782Z,-11.79
2023-01-17T11:57:36.105Z,-11.84
2023-01-17T12:00:20.081Z,-11.81
2023-01-17T12:03:10.146Z,-11.80
2023-01-17T12:05:59.615Z,-11.83
2023-01-17T12:08:34.780Z,-11.84
2023-01-17T12:12:04.441Z,-11.87
2023-01-17T12:14:56.280Z,-11.84
2023-01-17T12:17:50.838Z,-11.85
2023-01-17T12:20:42.236Z,-11.81
2023-01-17T12:23:41.179Z,-11.84
2023-01-17T12:26:31.415Z,-11.83
2023-01-17T12:29:03.074Z,-11.86
2023-01-17T12:32:01.671Z,-11.91
2023-01-17T12:34:47.916Z,-11.85
2023-01-17T12:37:17.215Z,-11.83
2023-01-17T12:40:01.422Z,-11.83
2023-01-17T12:42:39.228Z,-11.83
2023-01-17T12:45:10.654Z,-11.86
2023-01-17T12:47:46.152Z,-11.93
2023-01-17T12:50:41.535Z,-11.93
2023-01-17T12:53:52.271Z,-11.89
2023-01-17T12:56:49.497Z,-11.90
2023-01-17T12:59:30.625Z,-11.96
2023-01-17T13:02:03.503Z,-11.99
2023-01-17T13:07:33.938Z,-12.08
2023-01-17T13:10:08.627Z,-12.14
2023-01-17T13:12:39.425Z,-12.15
2023-01-17T13:15:18.216Z,-12.15
2023-01-17T13:17:50.564Z,-12.11
2023-01-17T13:20:44.737Z,-12.09
2023-01-17T13:23:48.431Z,-12.09
2023-01-17T13:26:34.076Z,-12.07
2023-01-17T13:29:31.659Z,-12.08
2023-01-17T13:32:09.406Z,-12.08
2023-01-17T13:35:07.339Z,-12.12
2023-01-17T13:37:46.606Z,-12.12
2023-01-17T13:40:55.369Z,-12.14
2023-01-17T13:43:26.923Z,-12.21
2023-01-17T13:46:02.085Z,-12.26
2023-01-17T13:48:32.587Z,-12.28
2023-01-17T13:51:09.599Z,-12.34
2023-01-17T13:53:41.754Z,-12.31
2023-01-17T13:56:19.716Z,-12.32
2023-01-17T13:59:06.770Z,-12.32
2023-01-17T14:01:39.437Z,-12.33
2023-01-17T14:04:10.347Z,-12.33
2023-01-17T14:06:49.656Z,-12.27
2023-01-17T14:09:18.607Z,-12.25
2023-01-17T14:11:54.804Z,-12.29
2023-01-17T14:14:42.304Z,-12.26
2023-01-17T14:17:23.785Z,-12.27
2023-01-17T14:19:54.792Z,-12.27
2023-01-17T14:25:15.378Z,-12.27
2023-01-17T14:27:44.186Z,-12.29
2023-01-17T14:30:19.327Z,-12.29
2023-01-17T14:33:06.372Z,-12.28
2023-01-17T14:35:55.205Z,-12.30
2023-01-17T14:38:32.579Z,-12.33
2023-01-17T14:41:08.624Z,-12.37
2023-01-17T14:43:42.942Z,-12.41
2023-01-17T14:46:32.860Z,-12.40
2023-01-17T14:49:04.589Z,-12.42
2023-01-17T14:51:35.752Z,-12.44
2023-01-17T14:54:16.520Z,-12.42
2023-01-17T14:56:45.965Z,-12.45
2023-01-17T14:59:22.573Z,-12.47
2023-01-17T15:02:06.620Z,-12.52
2023-01-17T15:04:40.092Z,-12.60
2023-01-17T15:07:16.903Z,-12.62
2023-01-17T15:09:46.915Z,-12.62
2023-01-17T15:12:15.804Z,-12.65
2023-01-17T15:17:22.803Z,-12.63
2023-01-17T15:19:57.707Z,-12.63
2023-01-17T15:22:29.878Z,-12.59
2023-01-17T15:24:59.822Z,-12.64
2023-01-17T15:27:29.265Z,-12.62
2023-01-17T15:30:02.883Z,-12.67
2023-01-17T15:32:33.274Z,-12.70
2023-01-17T15:35:03.697Z,-12.73
2023-01-17T15:37:42.677Z,-12.80
2023-01-17T15:40:28.666Z,-12.84
2023-01-17T15:43:00.168Z,-12.83
2023-01-17T15:45:31.988Z,-12.82
2023-01-17T15:48:41.631Z,-12.83
2023-01-17T15:51:13.642Z,-12.85
2023-01-17T15:53:43.526Z,-12.81
2023-01-17T15:56:26.910Z,-12.86
2023-01-17T15:58:55.875Z,-12.82
2023-01-17T16:01:28.775Z,-12.82
2023-01-17T16:03:59.216Z,-12.85
2023-01-17T16:06:46.172Z,-12.85
2023-01-17T16:09:25.639Z,-12.82
2023-01-17T16:11:54.439Z,-12.80
2023-01-17T16:14:23.311Z,-12.79
2023-01-17T16:16:53.373Z,-12.79
2023-01-17T16:19:22.305Z,-12.77
2023-01-17T16:21:52.128Z,-12.77
2023-01-17T16:24:20.976Z,-12.72
2023-01-17T16:26:49.871Z,-12.71
2023-01-17T16:29:18.626Z,-12.73
2023-01-17T16:31:47.518Z,-12.67
2023-01-17T16:34:16.461Z,-12.66
2023-01-17T16:36:45.408Z,-12.80
2023-01-17T16:39:16.356Z,-12.68
2023-01-17T16:41:45.179Z,-12.69
2023-01-17T16:44:14.069Z,-12.67
2023-01-17T16:46:44.353Z,-12.66
2023-01-17T16:49:13.252Z,-12.65
2023-01-17T16:51:42.572Z,-12.64
2023-01-17T16:54:11.471Z,-12.67
2023-01-17T16:56:40.440Z,-12.59
2023-01-17T16:59:09.259Z,-12.59
2023-01-17T17:01:39.243Z,-12.64
2023-01-17T17:04:08.542Z,-12.63
2023-01-17T17:06:37.381Z,-12.65
2023-01-17T17:09:06.476Z,-12.64
2023-01-17T17:11:35.283Z,-12.68
2023-01-17T17:14:04.555Z,-12.65
2023-01-17T17:16:34.705Z,-12.67
2023-01-17T17:19:08.146Z,-12.65
2023-01-17T17:21:38.909Z,-12.67
2023-01-17T17:24:08.105Z,-12.59
2023-01-17T17:26:38.057Z,-12.58
2023-01-17T17:29:11.023Z,-12.52
2023-01-17T17:31:41.881Z,-12.52
2023-01-17T17:34:15.633Z,-12.45
2023-01-17T17:36:44.699Z,-12.43
2023-01-17T17:39:15.474Z,-12.43
2023-01-17T17:41:46.354Z,-12.40
2023-01-17T17:44:15.365Z,-12.39
2023-01-17T17:46:45.317Z,-12.34
2023-01-17T17:49:14.172Z,-12.33
2023-01-17T17:51:43.443Z,-12.30
2023-01-17T17:54:13.888Z,-12.30
2023-01-17T17:56:52.770Z,-12.31
2023-01-17T17:59:21.701Z,-12.28
2023-01-17T18:01:52.652Z,-12.26
2023-01-17T18:04:22.590Z,-12.30
2023-01-17T18:06:51.563Z,-12.41
2023-01-17T18:09:20.466Z,-12.51
2023-01-17T18:11:49.261Z,-12.68
2023-01-17T18:14:21.471Z,-12.90
2023-01-17T18:16:51.391Z,-13.06
2023-01-17T18:19:25.815Z,-13.13
2023-01-17T18:21:55.175Z,-13.23
2023-01-17T18:24:25.537Z,-13.31
2023-01-17T18:26:59.710Z,-13.36
2023-01-17T18:29:28.704Z,-13.39
2023-01-17T18:31:57.580Z,-13.47
2023-01-17T18:34:29.876Z,-13.46
2023-01-17T18:36:59.116Z,-13.45
2023-01-17T18:39:30.315Z,-13.47
2023-01-17T18:42:00.041Z,-13.54
2023-01-17T18:44:30.310Z,-13.64
2023-01-17T18:47:02.608Z,-13.88
2023-01-17T18:49:33.348Z,-14.09
2023-01-17T18:52:02.399Z,-14.30
2023-01-17T18:54:32.494Z,-14.55
2023-01-17T18:57:01.425Z,-14.68
2023-01-17T18:59:30.332Z,-14.87
2023-01-17T19:01:59.511Z,-15.05
2023-01-17T19:04:29.316Z,-15.18
2023-01-17T19:06:58.244Z,-15.34
2023-01-17T19:09:27.145Z,-15.46
2023-01-17T19:11:55.977Z,-15.60
2023-01-17T19:14:25.890Z,-15.77
2023-01-17T19:16:54.814Z,-15.93
2023-01-17T19:19:23.902Z,-16.00
2023-01-17T19:21:53.132Z,-16.14
2023-01-17T19:24:21.981Z,-16.30
2023-01-17T19:26:53.727Z,-16.43
2023-01-17T19:29:23.262Z,-16.58
2023-01-17T19:31:52.158Z,-16.69
2023-01-17T19:34:21.339Z,-16.90
2023-01-17T19:36:50.233Z,-17.12
2023-01-17T19:39:20.340Z,-17.24
2023-01-17T19:41:49.165Z,-17.35
2023-01-17T19:44:18.313Z,-17.48
2023-01-17T19:46:47.936Z,-17.46
2023-01-17T19:49:20.303Z,-17.58
2023-01-17T19:51:50.136Z,-17.77
2023-01-17T19:54:18.998Z,-17.90
2023-01-17T19:56:47.827Z,-18.16
2023-01-17T19:59:16.768Z,-18.18
2023-01-17T20:01:46.551Z,-18.29
2023-01-17T20:04:18.668Z,-18.38
2023-01-17T20:06:47.794Z,-18.45
2023-01-17T20:09:16.579Z,-18.61
2023-01-17T20:11:46.183Z,-18.68
2023-01-17T20:14:15.821Z,-18.76
2023-01-17T20:16:47.999Z,-18.81
2023-01-17T20:19:17.126Z,-18.90
2023-01-17T20:21:46.317Z,-19.01
2023-01-17T20:24:16.897Z,-19.15
2023-01-17T20:26:45.793Z,-19.25
2023-01-17T20:29:16.798Z,-19.34
2023-01-17T20:31:46.147Z,-19.48
2023-01-17T20:34:17.372Z,-19.66
2023-01-17T20:36:46.640Z,-19.73
2023-01-17T20:39:16.123Z,-19.75
2023-01-17T20:41:46.717Z,-19.81
2023-01-17T20:44:16.904Z,-19.81
2023-01-17T20:46:46.870Z,-19.89
2023-01-17T20:49:19.353Z,-19.98
2023-01-17T20:51:48.844Z,-20.12
2023-01-17T20:54:21.675Z,-20.29
2023-01-17T20:56:50.840Z,-20.34
2023-01-17T20:59:23.111Z,-20.49
2023-01-17T21:01:53.102Z,-20.57
2023-01-17T21:04:26.360Z,-20.62
2023-01-17T21:06:55.892Z,-20.68
2023-01-17T21:09:25.030Z,-20.74
2023-01-17T21:11:54.952Z,-20.72
2023-01-17T21:14:23.858Z,-20.80
2023-01-17T21:16:52.726Z,-20.97
2023-01-17T21:19:22.745Z,-21.11
2023-01-17T21:21:52.165Z,-21.28
2023-01-17T21:24:21.051Z,-21.40
2023-01-17T21:26:52.032Z,-21.40
2023-01-17T21:29:20.905Z,-21.53
2023-01-17T21:31:49.943Z,-21.74
2023-01-17T21:34:18.803Z,-21.72
2023-01-17T21:36:47.849Z,-21.83
2023-01-17T21:39:19.285Z,-22.04
2023-01-17T21:41:51.282Z,-22.18
2023-01-17T21:44:24.179Z,-22.29
2023-01-17T21:46:55.966Z,-22.35
2023-01-17T21:49:25.321Z,-22.47
2023-01-17T21:51:54.370Z,-22.48
2023-01-17T21:54:45.287Z,-22.56
2023-01-17T21:57:35.677Z,-22.57
2023-01-17T22:00:10.611Z,-22.66
2023-01-17T22:02:48.999Z,-22.71
2023-01-17T22:05:19.069Z,-22.73
2023-01-17T22:08:06.453Z,-22.80
2023-01-17T22:10:45.012Z,-22.92
2023-01-17T22:13:18.731Z,-23.06
2023-01-17T22:15:59.180Z,-23.10
2023-01-17T22:18:29.474Z,-23.13
2023-01-17T22:20:58.590Z,-23.17
2023-01-17T22:23:27.529Z,-23.22
2023-01-17T22:26:02.685Z,-23.26
2023-01-17T22:28:33.162Z,-23.39
2023-01-17T22:31:13.898Z,-23.38
2023-01-17T22:33:44.762Z,-23.51
2023-01-17T22:36:15.404Z,-23.61
2023-01-17T22:38:44.981Z,-23.75
2023-01-17T22:41:18.105Z,-23.78
2023-01-17T22:43:49.063Z,-23.87
2023-01-17T22:46:20.310Z,-24.04
2023-01-17T22:48:49.385Z,-24.12
2023-01-17T22:51:19.652Z,-24.34
2023-01-17T22:53:50.939Z,-24.35
2023-01-17T22:56:22.184Z,-24.48
2023-01-17T22:58:51.596Z,-24.56
2023-01-17T23:01:26.801Z,-24.66
2023-01-17T23:04:04.397Z,-24.63
2023-01-17T23:06:38.895Z,-24.73
2023-01-17T23:09:11.168Z,-24.78
2023-01-17T23:11:51.420Z,-24.94
2023-01-17T23:14:52.761Z,-24.98
2023-01-17T23:17:41.457Z,-25.16
2023-01-17T23:20:12.572Z,-25.29
2023-01-17T23:22:41.507Z,-25.34
2023-01-17T23:25:13.440Z,-25.34
2023-01-17T23:28:05.364Z,-25.36
2023-01-17T23:30:40.826Z,-25.35
2023-01-17T23:33:15.242Z,-25.39
2023-01-17T23:35:46.799Z,-25.43
2023-01-17T23:38:35.238Z,-25.49
2023-01-17T23:41:27.258Z,-25.55
2023-01-17T23:43:58.157Z,-25.58
2023-01-17T23:46:27.477Z,-25.64
2023-01-17T23:48:56.342Z,-25.56
2023-01-17T23:51:25.220Z,-25.51
2023-01-17T23:54:05.804Z,-25.56
2023-01-17T23:56:34.853Z,-25.65
2023-01-17T23:59:04.950Z,-25.73
